createdAt,value
2017-11-28T00:00:05.745Z,7.35
2017-11-28T00:00:40.167Z,7.15
2017-11-28T00:01:14.410Z,7.70
2017-11-28T00:01:49.146Z,7.07
2017-11-28T00:02:23.896Z,7.50
2017-11-28T00:02:58.638Z,7.20
2017-11-28T00:03:33.381Z,7.80
2017-11-28T00:04:08.148Z,7.57
2017-11-28T00:04:42.898Z,7.20
2017-11-28T00:05:17.650Z,6.35
2017-11-28T00:05:52.391Z,6.90
2017-11-28T00:06:27.161Z,7.25
2017-11-28T00:07:01.590Z,7.65
2017-11-28T00:07:36.017Z,7.87
2017-11-28T00:08:10.762Z,6.80
2017-11-28T00:08:45.518Z,7.20
2017-11-28T00:09:20.253Z,7.57
2017-11-28T00:09:55.003Z,6.93
2017-11-28T00:10:29.423Z,7.35
2017-11-28T00:11:03.824Z,7.15
2017-11-28T00:11:38.597Z,7.30
2017-11-28T00:12:13.337Z,7.70
2017-11-28T00:12:47.770Z,7.57
2017-11-28T00:13:22.542Z,7.43
2017-11-28T00:13:57.292Z,7.12
2017-11-28T00:14:31.707Z,7.70
2017-11-28T00:15:06.477Z,7.55
2017-11-28T00:15:40.994Z,6.65
2017-11-28T00:16:15.741Z,7.55
2017-11-28T00:16:50.497Z,7.47
2017-11-28T00:17:24.904Z,7.12
2017-11-28T00:17:59.335Z,6.60
2017-11-28T00:18:33.758Z,6.40
2017-11-28T00:19:08.506Z,6.62
2017-11-28T00:19:43.273Z,6.15
2017-11-28T00:20:17.684Z,6.55
2017-11-28T00:20:52.098Z,7.20
2017-11-28T00:21:26.838Z,7.03
2017-11-28T00:22:01.613Z,6.87
2017-11-28T00:22:36.020Z,6.57
2017-11-28T00:23:10.422Z,6.12
2017-11-28T00:23:45.156Z,6.85
2017-11-28T00:24:20.664Z,6.70
2017-11-28T00:24:55.081Z,6.80
2017-11-28T00:25:29.498Z,7.43
2017-11-28T00:26:03.920Z,6.60
2017-11-28T00:26:38.670Z,7.43
2017-11-28T00:27:13.444Z,6.45
2017-11-28T00:27:47.848Z,6.35
2017-11-28T00:28:22.248Z,6.62
2017-11-28T00:28:56.991Z,6.80
2017-11-28T00:29:31.733Z,6.97
2017-11-28T00:30:06.159Z,6.00
2017-11-28T00:30:40.581Z,6.68
2017-11-28T00:31:14.998Z,6.72
2017-11-28T00:31:49.740Z,5.55
2017-11-28T00:32:24.176Z,6.07
2017-11-28T00:32:58.572Z,6.15
2017-11-28T00:33:32.997Z,5.82
2017-11-28T00:34:07.431Z,6.45
2017-11-28T00:34:41.945Z,6.32
2017-11-28T00:35:16.366Z,5.50
2017-11-28T00:35:51.106Z,6.50
2017-11-28T00:36:25.345Z,6.68
2017-11-28T00:36:59.767Z,6.07
2017-11-28T00:37:34.531Z,6.10
2017-11-28T00:38:08.941Z,5.85
2017-11-28T00:38:43.156Z,6.03
2017-11-28T00:39:17.581Z,5.90
2017-11-28T00:39:51.999Z,5.87
2017-11-28T00:40:26.400Z,6.03
2017-11-28T00:41:01.146Z,5.50
2017-11-28T00:41:35.596Z,6.00
2017-11-28T00:42:10.002Z,5.90
2017-11-28T00:42:44.441Z,5.80
2017-11-28T00:43:19.200Z,5.50
2017-11-28T00:43:53.449Z,5.72
2017-11-28T00:44:28.189Z,5.32
2017-11-28T00:45:02.719Z,4.80
2017-11-28T00:45:37.497Z,5.53
2017-11-28T00:46:11.916Z,4.85
2017-11-28T00:46:46.340Z,5.70
2017-11-28T00:47:20.773Z,5.60
2017-11-28T00:47:55.399Z,5.35
2017-11-28T00:48:29.830Z,5.68
2017-11-28T00:49:04.237Z,5.43
2017-11-28T00:49:38.649Z,5.80
2017-11-28T00:50:13.069Z,5.70
2017-11-28T00:50:47.478Z,5.20
2017-11-28T00:51:22.041Z,5.20
2017-11-28T00:51:56.790Z,5.50
2017-11-28T00:52:31.205Z,5.07
2017-11-28T00:53:05.668Z,5.40
2017-11-28T00:53:40.108Z,5.50
2017-11-28T00:54:14.329Z,5.50
2017-11-28T00:54:48.723Z,6.05
2017-11-28T00:55:23.470Z,5.10
2017-11-28T00:55:58.215Z,5.20
2017-11-28T00:56:32.678Z,5.50
2017-11-28T00:57:07.095Z,5.57
2017-11-28T00:57:41.831Z,5.35
2017-11-28T00:58:16.272Z,5.60
2017-11-28T00:58:50.708Z,5.28
2017-11-28T00:59:25.223Z,5.03
2017-11-28T00:59:59.977Z,4.82
2017-11-28T01:00:34.725Z,4.72
2017-11-28T01:01:09.471Z,4.65
2017-11-28T01:01:44.257Z,5.03
2017-11-28T01:02:18.993Z,5.18
2017-11-28T01:02:53.728Z,4.60
2017-11-28T01:03:28.203Z,4.62
2017-11-28T01:04:02.618Z,4.97
2017-11-28T01:04:37.365Z,4.95
2017-11-28T01:05:12.114Z,4.57
2017-11-28T01:05:46.854Z,5.03
2017-11-28T01:06:21.589Z,4.65
2017-11-28T01:06:56.000Z,4.95
2017-11-28T01:07:30.409Z,5.25
2017-11-28T01:08:04.860Z,4.25
2017-11-28T01:08:39.302Z,5.03
2017-11-28T01:09:13.722Z,4.90
2017-11-28T01:09:48.155Z,5.40
2017-11-28T01:10:22.565Z,4.80
2017-11-28T01:10:57.327Z,4.70
2017-11-28T01:11:31.826Z,4.97
2017-11-28T01:12:06.237Z,4.65
2017-11-28T01:12:40.649Z,4.40
2017-11-28T01:13:15.069Z,4.65
2017-11-28T01:13:49.513Z,4.65
2017-11-28T01:14:24.254Z,4.50
2017-11-28T01:14:59.006Z,4.70
2017-11-28T01:15:33.806Z,4.40
2017-11-28T01:16:08.232Z,4.32
2017-11-28T01:16:42.634Z,4.28
2017-11-28T01:17:17.040Z,4.93
2017-11-28T01:17:51.457Z,5.35
2017-11-28T01:18:25.911Z,4.97
2017-11-28T01:19:00.379Z,4.85
2017-11-28T01:19:35.148Z,5.15
2017-11-28T01:20:09.557Z,4.57
2017-11-28T01:20:43.977Z,4.93
2017-11-28T01:21:18.380Z,4.50
2017-11-28T01:21:52.821Z,4.70
2017-11-28T01:22:27.234Z,5.55
2017-11-28T01:23:01.667Z,4.60
2017-11-28T01:23:36.416Z,4.80
2017-11-28T01:24:10.870Z,4.78
2017-11-28T01:24:45.292Z,4.55
2017-11-28T01:25:20.490Z,4.65
2017-11-28T01:25:54.930Z,5.07
2017-11-28T01:26:29.352Z,5.25
2017-11-28T01:27:04.238Z,4.93
2017-11-28T01:27:39.004Z,4.75
2017-11-28T01:28:13.421Z,5.12
2017-11-28T01:28:47.850Z,4.90
2017-11-28T01:29:22.300Z,5.10
2017-11-28T01:29:56.730Z,4.90
2017-11-28T01:30:31.141Z,4.10
2017-11-28T01:31:05.557Z,4.47
2017-11-28T01:31:39.964Z,4.80
2017-11-28T01:32:14.368Z,5.10
2017-11-28T01:32:48.800Z,4.90
2017-11-28T01:33:23.223Z,4.93
2017-11-28T01:33:57.707Z,4.85
2017-11-28T01:34:32.162Z,4.30
2017-11-28T01:35:06.569Z,4.40
2017-11-28T01:35:40.968Z,4.72
2017-11-28T01:36:15.380Z,5.00
2017-11-28T01:36:49.796Z,5.10
2017-11-28T01:37:24.200Z,5.15
2017-11-28T01:37:58.609Z,4.55
2017-11-28T01:38:33.028Z,4.55
2017-11-28T01:39:07.442Z,4.80
2017-11-28T01:39:41.897Z,4.85
2017-11-28T01:40:16.325Z,5.00
2017-11-28T01:40:50.745Z,4.75
2017-11-28T01:41:25.168Z,4.72
2017-11-28T01:41:59.589Z,4.53
2017-11-28T01:42:34.006Z,4.30
2017-11-28T01:43:08.428Z,5.00
2017-11-28T01:43:42.850Z,4.90
2017-11-28T01:44:17.352Z,4.30
2017-11-28T01:44:51.814Z,4.30
2017-11-28T01:45:26.222Z,4.53
2017-11-28T01:46:00.646Z,4.28
2017-11-28T01:46:35.054Z,4.62
2017-11-28T01:47:09.486Z,4.28
2017-11-28T01:47:44.065Z,4.35
2017-11-28T01:48:18.473Z,5.05
2017-11-28T01:48:52.887Z,4.68
2017-11-28T01:49:27.296Z,4.70
2017-11-28T01:50:01.733Z,4.22
2017-11-28T01:50:36.207Z,3.97
2017-11-28T01:51:10.629Z,3.80
2017-11-28T01:51:45.043Z,5.10
2017-11-28T01:52:19.458Z,4.62
2017-11-28T01:52:53.890Z,4.60
2017-11-28T01:53:28.295Z,5.15
2017-11-28T01:54:02.710Z,4.95
2017-11-28T01:54:37.123Z,4.40
2017-11-28T01:55:11.581Z,5.15
2017-11-28T01:55:45.999Z,4.28
2017-11-28T01:56:20.417Z,3.92
2017-11-28T01:56:54.936Z,4.18
2017-11-28T01:57:29.361Z,4.65
2017-11-28T01:58:03.779Z,3.92
2017-11-28T01:58:38.195Z,4.20
2017-11-28T01:59:12.618Z,5.05
2017-11-28T01:59:47.045Z,4.43
2017-11-28T02:00:21.809Z,4.47
2017-11-28T02:00:56.237Z,4.53
2017-11-28T02:01:30.890Z,4.70
2017-11-28T02:02:05.306Z,4.30
2017-11-28T02:02:39.724Z,4.40
2017-11-28T02:03:14.135Z,4.72
2017-11-28T02:03:48.562Z,4.30
2017-11-28T02:04:23.070Z,4.72
2017-11-28T02:04:57.489Z,4.45
2017-11-28T02:05:31.939Z,4.15
2017-11-28T02:06:06.491Z,4.45
2017-11-28T02:06:41.243Z,4.85
2017-11-28T02:07:15.466Z,4.80
2017-11-28T02:07:49.689Z,4.28
2017-11-28T02:08:24.155Z,4.32
2017-11-28T02:08:58.565Z,4.60
2017-11-28T02:09:32.972Z,4.87
2017-11-28T02:10:07.193Z,4.60
2017-11-28T02:10:41.630Z,4.72
2017-11-28T02:11:16.073Z,4.60
2017-11-28T02:11:50.524Z,4.40
2017-11-28T02:12:24.966Z,4.40
2017-11-28T02:12:59.393Z,4.00
2017-11-28T02:13:33.809Z,4.43
2017-11-28T02:14:08.224Z,4.30
2017-11-28T02:14:42.629Z,4.10
2017-11-28T02:15:17.071Z,4.55
2017-11-28T02:15:51.337Z,4.10
2017-11-28T02:16:25.557Z,4.60
2017-11-28T02:16:59.777Z,4.32
2017-11-28T02:17:34.001Z,4.18
2017-11-28T02:18:08.234Z,3.95
2017-11-28T02:18:42.657Z,4.30
2017-11-28T02:19:17.070Z,4.00
2017-11-28T02:19:51.499Z,3.92
2017-11-28T02:20:25.980Z,3.95
2017-11-28T02:21:00.235Z,3.92
2017-11-28T02:21:35.316Z,4.00
2017-11-28T02:22:09.738Z,3.85
2017-11-28T02:22:44.153Z,4.45
2017-11-28T02:23:18.385Z,3.92
2017-11-28T02:23:52.803Z,3.50
2017-11-28T02:24:27.266Z,3.90
2017-11-28T02:25:01.502Z,3.90
2017-11-28T02:25:35.913Z,3.25
2017-11-28T02:26:10.430Z,3.30
2017-11-28T02:26:44.855Z,3.17
2017-11-28T02:27:19.600Z,3.55
2017-11-28T02:27:54.068Z,3.60
2017-11-28T02:28:31.097Z,3.50
2017-11-28T02:29:05.528Z,3.20
2017-11-28T02:29:39.929Z,3.40
2017-11-28T02:30:14.348Z,3.10
2017-11-28T02:30:48.899Z,2.92
2017-11-28T02:31:23.341Z,2.97
2017-11-28T02:31:57.761Z,3.03
2017-11-28T02:32:32.172Z,3.08
2017-11-28T02:33:06.596Z,3.25
2017-11-28T02:33:41.007Z,3.53
2017-11-28T02:34:15.461Z,3.08
2017-11-28T02:34:50.542Z,3.10
2017-11-28T02:35:24.983Z,2.90
2017-11-28T02:35:59.400Z,3.00
2017-11-28T02:36:33.858Z,3.25
2017-11-28T02:37:08.270Z,3.00
2017-11-28T02:37:42.686Z,2.72
2017-11-28T02:38:17.108Z,3.30
2017-11-28T02:38:51.521Z,2.62
2017-11-28T02:39:25.973Z,2.75
2017-11-28T02:40:00.401Z,2.60
2017-11-28T02:40:40.664Z,2.60
2017-11-28T02:41:15.699Z,2.30
2017-11-28T02:41:50.141Z,2.78
2017-11-28T02:42:24.557Z,2.58
2017-11-28T02:42:58.815Z,2.70
2017-11-28T02:43:33.223Z,2.67
2017-11-28T02:44:07.650Z,2.85
2017-11-28T02:44:42.079Z,2.45
2017-11-28T02:45:16.488Z,2.50
2017-11-28T02:45:50.902Z,2.75
2017-11-28T02:46:25.364Z,2.50
2017-11-28T02:46:59.833Z,2.72
2017-11-28T02:47:34.241Z,2.33
2017-11-28T02:48:08.655Z,2.28
2017-11-28T02:48:57.951Z,2.80
2017-11-28T02:50:29.491Z,2.20
2017-11-28T02:51:04.742Z,2.65
2017-11-28T02:51:43.802Z,2.50
2017-11-28T02:52:18.486Z,2.50
2017-11-28T02:52:52.937Z,2.40
2017-11-28T02:53:27.356Z,2.00
2017-11-28T02:54:01.780Z,2.28
2017-11-28T02:54:42.210Z,2.30
2017-11-28T02:55:18.463Z,2.25
2017-11-28T02:55:53.766Z,2.60
2017-11-28T02:56:28.778Z,2.15
2017-11-28T02:57:03.197Z,2.50
2017-11-28T02:57:37.649Z,2.40
2017-11-28T02:58:17.967Z,2.37
2017-11-28T02:58:54.312Z,2.20
2017-11-28T02:59:30.481Z,2.53
2017-11-28T03:00:04.920Z,2.40
2017-11-28T03:00:42.204Z,2.10
2017-11-28T03:01:17.377Z,2.25
2017-11-28T03:02:02.521Z,2.45
2017-11-28T03:02:37.018Z,1.80
2017-11-28T03:03:11.470Z,2.20
2017-11-28T03:03:45.894Z,2.20
2017-11-28T03:04:20.320Z,2.37
2017-11-28T03:04:54.732Z,1.73
2017-11-28T03:05:29.153Z,2.37
2017-11-28T03:06:03.562Z,1.98
2017-11-28T03:06:37.980Z,2.17
2017-11-28T03:07:12.398Z,2.15
2017-11-28T03:07:46.817Z,2.08
2017-11-28T03:08:21.269Z,1.90
2017-11-28T03:08:55.697Z,2.15
2017-11-28T03:09:30.742Z,1.60
2017-11-28T03:10:05.161Z,2.20
2017-11-28T03:10:41.476Z,2.20
2017-11-28T03:11:15.896Z,1.85
2017-11-28T03:11:50.303Z,1.73
2017-11-28T03:12:27.391Z,2.00
2017-11-28T03:13:06.699Z,1.85
2017-11-28T03:13:41.885Z,1.80
2017-11-28T03:14:27.983Z,1.50
2017-11-28T03:15:03.119Z,2.05
2017-11-28T03:15:38.453Z,1.80
2017-11-28T03:16:12.877Z,1.67
2017-11-28T03:16:47.288Z,1.58
2017-11-28T03:17:21.703Z,1.90
2017-11-28T03:17:56.108Z,2.05
2017-11-28T03:18:30.520Z,1.90
2017-11-28T03:19:22.707Z,1.30
2017-11-28T03:19:58.057Z,1.65
2017-11-28T03:20:33.409Z,1.60
2017-11-28T03:21:08.760Z,1.50
2017-11-28T03:21:43.161Z,1.50
2017-11-28T03:22:20.475Z,1.85
2017-11-28T03:22:54.886Z,1.70
2017-11-28T03:23:33.918Z,1.55
2017-11-28T03:24:11.875Z,1.50
2017-11-28T03:24:56.228Z,1.60
2017-11-28T03:25:40.881Z,2.00
2017-11-28T03:26:15.301Z,2.03
2017-11-28T03:26:49.709Z,1.50
2017-11-28T03:27:24.128Z,1.62
2017-11-28T03:28:09.349Z,1.87
2017-11-28T03:28:43.757Z,2.03
2017-11-28T03:29:20.142Z,1.70
2017-11-28T03:29:56.356Z,1.83
2017-11-28T03:30:34.698Z,2.30
2017-11-28T03:31:19.083Z,1.75
2017-11-28T03:31:53.489Z,1.98
2017-11-28T03:32:27.905Z,1.80
2017-11-28T03:33:02.335Z,1.50
2017-11-28T03:33:36.997Z,1.75
2017-11-28T03:34:11.788Z,2.20
2017-11-28T03:34:46.322Z,2.22
2017-11-28T03:35:20.592Z,2.33
2017-11-28T03:35:55.161Z,2.25
2017-11-28T03:36:29.590Z,2.00
2017-11-28T03:37:04.017Z,2.03
2017-11-28T03:37:38.426Z,2.00
2017-11-28T03:38:12.847Z,2.12
2017-11-28T03:38:47.274Z,2.62
2017-11-28T03:39:21.685Z,2.35
2017-11-28T03:39:56.099Z,2.15
2017-11-28T03:40:30.568Z,2.10
2017-11-28T03:41:05.031Z,2.80
2017-11-28T03:41:39.461Z,2.20
2017-11-28T03:42:13.684Z,2.28
2017-11-28T03:42:48.096Z,2.12
2017-11-28T03:43:22.336Z,2.17
2017-11-28T03:43:56.752Z,2.20
2017-11-28T03:44:46.905Z,2.50
2017-11-28T03:45:25.103Z,2.53
2017-11-28T03:46:02.673Z,2.37
2017-11-28T03:46:36.958Z,2.22
2017-11-28T03:47:11.197Z,2.05
2017-11-28T03:47:45.626Z,2.45
2017-11-28T03:48:20.064Z,2.00
2017-11-28T03:48:57.411Z,2.25
2017-11-28T03:49:31.822Z,2.47
2017-11-28T03:50:09.849Z,2.47
2017-11-28T03:50:44.281Z,1.92
2017-11-28T03:51:18.727Z,2.40
2017-11-28T03:51:53.181Z,2.30
2017-11-28T03:52:27.589Z,2.90
2017-11-28T03:53:02.008Z,2.50
2017-11-28T03:53:36.452Z,2.80
2017-11-28T03:54:11.058Z,2.33
2017-11-28T03:54:45.494Z,2.72
2017-11-28T03:55:19.909Z,2.70
2017-11-28T03:55:54.344Z,2.58
2017-11-28T03:56:28.789Z,2.10
2017-11-28T03:57:03.206Z,2.20
2017-11-28T03:57:37.655Z,2.53
2017-11-28T03:58:12.069Z,2.25
2017-11-28T03:58:46.499Z,2.10
2017-11-28T03:59:21.117Z,2.40
2017-11-28T03:59:55.568Z,2.17
2017-11-28T04:00:30.382Z,2.37
2017-11-28T04:01:04.797Z,2.50
2017-11-28T04:01:39.234Z,2.15
2017-11-28T04:02:13.641Z,2.35
2017-11-28T04:02:48.052Z,2.40
2017-11-28T04:03:22.461Z,2.20
2017-11-28T04:03:56.880Z,2.10
2017-11-28T04:04:31.302Z,2.20
2017-11-28T04:05:05.712Z,2.42
2017-11-28T04:05:40.146Z,2.12
2017-11-28T04:06:14.565Z,2.28
2017-11-28T04:06:49.005Z,1.90
2017-11-28T04:07:23.438Z,2.12
2017-11-28T04:07:57.857Z,2.20
2017-11-28T04:08:32.282Z,2.20
2017-11-28T04:09:06.697Z,2.00
2017-11-28T04:09:41.120Z,1.77
2017-11-28T04:10:15.551Z,1.85
2017-11-28T04:10:50.023Z,1.48
2017-11-28T04:11:24.432Z,1.92
2017-11-28T04:11:59.173Z,1.75
2017-11-28T04:12:33.580Z,1.62
2017-11-28T04:13:07.994Z,2.10
2017-11-28T04:13:42.420Z,1.90
2017-11-28T04:14:16.637Z,2.00
2017-11-28T04:14:51.049Z,1.70
2017-11-28T04:15:25.465Z,1.62
2017-11-28T04:15:59.890Z,2.03
2017-11-28T04:16:34.466Z,1.70
2017-11-28T04:17:09.237Z,1.50
2017-11-28T04:17:43.658Z,1.98
2017-11-28T04:18:18.072Z,1.50
2017-11-28T04:18:52.495Z,1.75
2017-11-28T04:19:26.924Z,1.58
2017-11-28T04:20:01.354Z,1.62
2017-11-28T04:20:35.773Z,1.52
2017-11-28T04:21:10.188Z,1.67
2017-11-28T04:21:44.610Z,1.80
2017-11-28T04:22:19.413Z,1.60
2017-11-28T04:22:54.649Z,1.70
2017-11-28T04:23:29.178Z,1.33
2017-11-28T04:24:03.580Z,1.40
2017-11-28T04:24:37.988Z,1.45
2017-11-28T04:25:12.405Z,1.62
2017-11-28T04:25:46.838Z,1.60
2017-11-28T04:26:21.253Z,1.23
2017-11-28T04:26:55.678Z,1.48
2017-11-28T04:27:30.123Z,1.10
2017-11-28T04:28:04.557Z,1.40
2017-11-28T04:28:38.989Z,1.20
2017-11-28T04:29:13.407Z,1.30
2017-11-28T04:29:47.826Z,1.40
2017-11-28T04:30:22.284Z,1.37
2017-11-28T04:30:56.757Z,1.27
2017-11-28T04:31:31.175Z,1.50
2017-11-28T04:32:05.601Z,1.42
2017-11-28T04:32:40.069Z,1.40
2017-11-28T04:33:14.481Z,1.30
2017-11-28T04:33:48.897Z,1.35
2017-11-28T04:34:25.985Z,1.23
2017-11-28T04:35:00.418Z,1.20
2017-11-28T04:35:34.826Z,1.20
2017-11-28T04:36:09.265Z,1.33
2017-11-28T04:36:43.681Z,1.23
2017-11-28T04:37:18.110Z,1.62
2017-11-28T04:37:52.562Z,1.80
2017-11-28T04:38:26.993Z,1.80
2017-11-28T04:39:01.427Z,1.40
2017-11-28T04:39:35.847Z,1.20
2017-11-28T04:40:10.270Z,1.42
2017-11-28T04:40:44.686Z,1.60
2017-11-28T04:41:19.161Z,1.35
2017-11-28T04:41:53.592Z,1.23
2017-11-28T04:42:28.013Z,1.00
2017-11-28T04:43:02.461Z,1.33
2017-11-28T04:43:36.886Z,1.00
2017-11-28T04:44:11.306Z,1.15
2017-11-28T04:44:45.724Z,1.17
2017-11-28T04:45:20.148Z,1.30
2017-11-28T04:45:54.562Z,1.40
2017-11-28T04:46:28.987Z,1.30
2017-11-28T04:47:03.441Z,1.50
2017-11-28T04:47:37.860Z,1.35
2017-11-28T04:48:12.297Z,1.37
2017-11-28T04:48:46.718Z,1.30
2017-11-28T04:49:21.156Z,1.40
2017-11-28T04:49:55.561Z,1.30
2017-11-28T04:50:29.994Z,1.35
2017-11-28T04:51:04.432Z,1.17
2017-11-28T04:51:40.786Z,1.23
2017-11-28T04:52:15.220Z,1.20
2017-11-28T04:52:49.682Z,1.15
2017-11-28T04:53:24.122Z,1.10
2017-11-28T04:53:58.564Z,1.20
2017-11-28T04:54:32.993Z,1.30
2017-11-28T04:55:07.405Z,1.10
2017-11-28T04:55:41.825Z,1.30
2017-11-28T04:56:16.252Z,1.33
2017-11-28T04:56:50.674Z,1.20
2017-11-28T04:57:25.157Z,1.12
2017-11-28T04:57:59.565Z,1.35
2017-11-28T04:58:34.010Z,1.20
2017-11-28T04:59:08.431Z,1.73
2017-11-28T04:59:42.844Z,1.67
2017-11-28T05:00:17.262Z,1.10
2017-11-28T05:00:51.818Z,1.25
2017-11-28T05:01:26.237Z,1.10
2017-11-28T05:02:00.659Z,1.27
2017-11-28T05:02:35.064Z,1.70
2017-11-28T05:03:09.498Z,1.42
2017-11-28T05:03:43.938Z,1.23
2017-11-28T05:04:18.771Z,1.37
2017-11-28T05:04:53.188Z,1.30
2017-11-28T05:05:27.621Z,1.30
2017-11-28T05:06:02.460Z,1.25
2017-11-28T05:06:36.867Z,1.10
2017-11-28T05:07:11.094Z,1.67
2017-11-28T05:07:45.496Z,1.35
2017-11-28T05:08:19.914Z,1.42
2017-11-28T05:08:54.371Z,1.23
2017-11-28T05:09:28.793Z,1.35
2017-11-28T05:10:03.203Z,1.17
2017-11-28T05:10:37.604Z,1.23
2017-11-28T05:11:12.008Z,1.17
2017-11-28T05:11:46.423Z,2.00
2017-11-28T05:12:20.836Z,1.30
2017-11-28T05:12:55.250Z,1.48
2017-11-28T05:13:29.664Z,1.40
2017-11-28T05:14:04.102Z,1.75
2017-11-28T05:14:38.515Z,1.60
2017-11-28T05:15:12.917Z,1.20
2017-11-28T05:15:47.338Z,1.50
2017-11-28T05:16:21.759Z,1.15
2017-11-28T05:16:56.006Z,1.20
2017-11-28T05:17:30.419Z,1.30
2017-11-28T05:18:04.821Z,1.10
2017-11-28T05:18:39.237Z,1.70
2017-11-28T05:19:13.932Z,1.40
2017-11-28T05:19:48.333Z,1.30
2017-11-28T05:20:22.740Z,1.20
2017-11-28T05:20:57.151Z,1.50
2017-11-28T05:21:31.556Z,1.40
2017-11-28T05:22:05.975Z,1.60
2017-11-28T05:22:40.381Z,1.75
2017-11-28T05:23:14.812Z,1.40
2017-11-28T05:23:49.232Z,1.20
2017-11-28T05:24:23.683Z,1.60
2017-11-28T05:24:58.136Z,1.15
2017-11-28T05:25:32.558Z,1.70
2017-11-28T05:26:06.985Z,1.65
2017-11-28T05:26:41.397Z,1.40
2017-11-28T05:27:15.803Z,1.35
2017-11-28T05:27:50.226Z,1.20
2017-11-28T05:28:24.631Z,1.20
2017-11-28T05:28:59.045Z,1.60
2017-11-28T05:29:33.772Z,1.67
2017-11-28T05:30:08.217Z,1.42
2017-11-28T05:30:42.473Z,1.60
2017-11-28T05:31:16.890Z,1.30
2017-11-28T05:31:51.304Z,1.60
2017-11-28T05:32:25.708Z,1.60
2017-11-28T05:33:00.114Z,1.33
2017-11-28T05:33:34.532Z,1.10
2017-11-28T05:34:08.944Z,1.50
2017-11-28T05:34:43.386Z,1.23
2017-11-28T05:35:17.813Z,1.33
2017-11-28T05:35:52.338Z,1.15
2017-11-28T05:36:27.013Z,1.27
2017-11-28T05:37:01.419Z,1.17
2017-11-28T05:37:35.827Z,1.40
2017-11-28T05:38:10.962Z,1.30
2017-11-28T05:38:45.369Z,1.50
2017-11-28T05:39:19.806Z,1.30
2017-11-28T05:39:54.246Z,1.10
2017-11-28T05:40:28.684Z,1.75
2017-11-28T05:41:03.229Z,1.40
2017-11-28T05:41:37.673Z,1.48
2017-11-28T05:42:12.085Z,0.90
2017-11-28T05:42:46.494Z,1.42
2017-11-28T05:43:20.905Z,1.67
2017-11-28T05:43:55.325Z,1.58
2017-11-28T05:44:29.748Z,1.35
2017-11-28T05:45:04.189Z,1.30
2017-11-28T05:45:38.613Z,1.60
2017-11-28T05:46:13.046Z,2.15
2017-11-28T05:46:47.472Z,1.33
2017-11-28T05:47:21.910Z,1.55
2017-11-28T05:47:56.320Z,1.48
2017-11-28T05:48:30.745Z,1.50
2017-11-28T05:49:05.173Z,1.23
2017-11-28T05:49:39.598Z,1.90
2017-11-28T05:50:14.043Z,1.45
2017-11-28T05:50:48.463Z,1.75
2017-11-28T05:51:22.875Z,1.65
2017-11-28T05:51:57.278Z,1.35
2017-11-28T05:52:31.696Z,1.50
2017-11-28T05:53:06.116Z,1.40
2017-11-28T05:53:40.522Z,1.60
2017-11-28T05:54:14.934Z,1.80
2017-11-28T05:54:49.353Z,1.50
2017-11-28T05:55:23.801Z,1.62
2017-11-28T05:55:58.211Z,1.60
2017-11-28T05:56:32.614Z,1.42
2017-11-28T05:57:07.026Z,1.90
2017-11-28T05:57:41.497Z,1.95
2017-11-28T05:58:15.902Z,1.20
2017-11-28T05:58:50.325Z,1.77
2017-11-28T05:59:24.757Z,1.50
2017-11-28T05:59:59.229Z,1.83
2017-11-28T06:00:33.661Z,1.58
2017-11-28T06:01:08.937Z,1.65
2017-11-28T06:01:43.347Z,1.58
2017-11-28T06:02:17.755Z,1.75
2017-11-28T06:02:52.181Z,2.30
2017-11-28T06:03:26.617Z,1.58
2017-11-28T06:04:01.021Z,1.50
2017-11-28T06:04:35.437Z,1.65
2017-11-28T06:05:09.841Z,1.52
2017-11-28T06:05:44.285Z,1.33
2017-11-28T06:06:18.694Z,1.40
2017-11-28T06:06:53.105Z,1.67
2017-11-28T06:07:27.536Z,1.95
2017-11-28T06:08:02.043Z,1.85
2017-11-28T06:08:36.461Z,1.20
2017-11-28T06:09:10.885Z,1.40
2017-11-28T06:09:45.296Z,1.55
2017-11-28T06:10:19.696Z,1.52
2017-11-28T06:10:54.122Z,1.92
2017-11-28T06:11:28.530Z,1.70
2017-11-28T06:12:02.937Z,1.20
2017-11-28T06:12:37.353Z,1.42
2017-11-28T06:13:11.765Z,1.70
2017-11-28T06:13:45.992Z,1.10
2017-11-28T06:14:20.414Z,1.27
2017-11-28T06:14:54.819Z,1.33
2017-11-28T06:15:29.228Z,1.00
2017-11-28T06:16:03.680Z,1.20
2017-11-28T06:16:38.101Z,1.20
2017-11-28T06:17:12.553Z,1.30
2017-11-28T06:17:46.985Z,1.25
2017-11-28T06:18:21.261Z,1.50
2017-11-28T06:18:55.666Z,1.20
2017-11-28T06:19:30.073Z,1.02
2017-11-28T06:20:04.583Z,1.10
2017-11-28T06:20:39.002Z,1.35
2017-11-28T06:21:13.449Z,1.20
2017-11-28T06:21:47.848Z,1.17
2017-11-28T06:22:23.239Z,1.20
2017-11-28T06:22:57.667Z,1.45
2017-11-28T06:23:32.157Z,1.23
2017-11-28T06:24:06.389Z,1.45
2017-11-28T06:24:40.797Z,0.98
2017-11-28T06:25:15.240Z,1.52
2017-11-28T06:25:49.659Z,1.80
2017-11-28T06:26:23.893Z,1.50
2017-11-28T06:26:58.321Z,1.60
2017-11-28T06:27:32.726Z,2.05
2017-11-28T06:28:06.968Z,1.42
2017-11-28T06:28:41.382Z,1.67
2017-11-28T06:29:15.609Z,1.40
2017-11-28T06:29:50.432Z,1.50
2017-11-28T06:30:24.863Z,1.50
2017-11-28T06:30:59.288Z,1.60
2017-11-28T06:31:35.041Z,1.62
2017-11-28T06:32:09.451Z,2.00
2017-11-28T06:32:43.888Z,1.70
2017-11-28T06:33:18.303Z,1.30
2017-11-28T06:33:52.765Z,1.70
2017-11-28T06:34:27.186Z,1.37
2017-11-28T06:35:01.602Z,1.42
2017-11-28T06:35:36.742Z,1.30
2017-11-28T06:36:11.195Z,1.50
2017-11-28T06:36:45.658Z,1.30
2017-11-28T06:37:20.073Z,1.00
2017-11-28T06:37:54.488Z,1.00
2017-11-28T06:38:28.941Z,1.52
2017-11-28T06:39:03.177Z,1.15
2017-11-28T06:39:37.608Z,1.55
2017-11-28T06:40:12.029Z,1.37
2017-11-28T06:40:46.466Z,1.65
2017-11-28T06:41:20.899Z,1.40
2017-11-28T06:41:55.340Z,1.20
2017-11-28T06:42:29.754Z,1.65
2017-11-28T06:43:04.169Z,1.48
2017-11-28T06:43:38.623Z,1.30
2017-11-28T06:44:13.041Z,1.40
2017-11-28T06:44:47.448Z,1.62
2017-11-28T06:45:21.881Z,1.65
2017-11-28T06:45:56.334Z,1.50
2017-11-28T06:46:31.164Z,1.40
2017-11-28T06:47:05.453Z,1.98
2017-11-28T06:47:39.905Z,1.70
2017-11-28T06:48:14.324Z,1.45
2017-11-28T06:48:48.743Z,1.30
2017-11-28T06:49:23.169Z,1.42
2017-11-28T06:49:57.597Z,1.95
2017-11-28T06:50:32.013Z,1.65
2017-11-28T06:51:06.424Z,2.05
2017-11-28T06:51:40.836Z,2.47
2017-11-28T06:52:15.350Z,2.12
2017-11-28T06:52:49.773Z,2.28
2017-11-28T06:53:28.184Z,2.03
2017-11-28T06:54:02.660Z,2.33
2017-11-28T06:54:37.134Z,2.00
2017-11-28T06:55:11.708Z,1.98
2017-11-28T06:55:46.129Z,1.50
2017-11-28T06:56:20.537Z,1.87
2017-11-28T06:56:54.760Z,1.75
2017-11-28T06:57:29.262Z,1.60
2017-11-28T06:58:03.701Z,1.80
2017-11-28T06:58:38.112Z,2.12
2017-11-28T06:59:12.519Z,1.62
2017-11-28T06:59:58.798Z,2.00
2017-11-28T07:00:33.222Z,1.90
2017-11-28T07:01:07.648Z,1.98
2017-11-28T07:01:42.069Z,1.85
2017-11-28T07:02:16.480Z,1.95
2017-11-28T07:02:50.915Z,1.87
2017-11-28T07:03:25.317Z,2.28
2017-11-28T07:03:59.733Z,1.90
2017-11-28T07:04:34.140Z,2.40
2017-11-28T07:05:08.577Z,2.50
2017-11-28T07:05:42.990Z,2.60
2017-11-28T07:06:17.398Z,2.45
2017-11-28T07:06:51.809Z,2.42
2017-11-28T07:07:26.225Z,2.00
2017-11-28T07:08:00.664Z,2.47
2017-11-28T07:08:35.073Z,2.55
2017-11-28T07:09:09.489Z,2.60
2017-11-28T07:09:43.901Z,2.08
2017-11-28T07:10:18.322Z,2.33
2017-11-28T07:10:52.749Z,2.22
2017-11-28T07:11:27.532Z,2.70
2017-11-28T07:12:02.013Z,2.42
2017-11-28T07:12:36.420Z,2.33
2017-11-28T07:13:10.848Z,2.33
2017-11-28T07:13:45.073Z,2.40
2017-11-28T07:14:19.952Z,2.47
2017-11-28T07:14:54.370Z,2.67
2017-11-28T07:15:28.785Z,2.37
2017-11-28T07:16:03.207Z,2.20
2017-11-28T07:16:40.626Z,2.50
2017-11-28T07:17:15.035Z,2.60
2017-11-28T07:17:49.469Z,2.12
2017-11-28T07:18:23.929Z,2.10
2017-11-28T07:18:58.345Z,2.20
2017-11-28T07:19:32.756Z,2.50
2017-11-28T07:20:07.202Z,2.45
2017-11-28T07:20:41.629Z,2.40
2017-11-28T07:21:16.064Z,2.50
2017-11-28T07:21:50.479Z,2.60
2017-11-28T07:22:24.896Z,3.03
2017-11-28T07:22:59.317Z,2.45
2017-11-28T07:23:33.765Z,2.55
2017-11-28T07:24:08.173Z,3.10
2017-11-28T07:24:42.607Z,2.40
2017-11-28T07:25:17.018Z,2.40
2017-11-28T07:25:51.423Z,2.58
2017-11-28T07:26:25.894Z,3.10
2017-11-28T07:27:00.704Z,3.45
2017-11-28T07:27:35.114Z,3.60
2017-11-28T07:28:09.524Z,3.30
2017-11-28T07:28:43.991Z,2.75
2017-11-28T07:29:18.405Z,3.03
2017-11-28T07:29:52.822Z,2.45
2017-11-28T07:30:27.234Z,2.25
2017-11-28T07:31:01.695Z,2.67
2017-11-28T07:31:36.160Z,3.00
2017-11-28T07:32:10.565Z,2.50
2017-11-28T07:32:45.012Z,3.00
2017-11-28T07:33:19.424Z,2.67
2017-11-28T07:33:53.930Z,2.60
2017-11-28T07:34:28.340Z,3.53
2017-11-28T07:35:02.759Z,2.97
2017-11-28T07:35:37.209Z,2.87
2017-11-28T07:36:11.628Z,2.90
2017-11-28T07:36:46.053Z,2.33
2017-11-28T07:37:20.493Z,2.60
2017-11-28T07:37:55.104Z,3.00
2017-11-28T07:38:29.528Z,2.85
2017-11-28T07:39:04.040Z,2.40
2017-11-28T07:39:38.509Z,2.47
2017-11-28T07:40:12.931Z,2.75
2017-11-28T07:40:47.401Z,2.50
2017-11-28T07:41:21.869Z,2.50
2017-11-28T07:41:56.281Z,2.55
2017-11-28T07:42:30.722Z,2.62
2017-11-28T07:43:05.129Z,2.40